Harleysville, PA (19438)

6:59 PM EDT on August 30, 2015 (GMT -0400)
Harleysville/Skippack | | Change Station
CLOSE
Current Station
Personal Weather Station
Location: Harleysville, PA
Elevation: 320 ft
Nearby Weather Stations

Elev 320 ft 40.24 °N, 75.40 °W | Updated 2 seconds ago

Mostly Cloudy
Mostly Cloudy
83.0 °F
Feels Like 87 °F
N
2.0
Wind Variable Wind from WSW
Gusts 10.0 mph

Today
High -- | Low -- °F
--% Chance of Precip.
Yesterday
High -- | Low -- °F
Precip. -- in
6:26 AM 7:36 PM
Full, 98% visible
Pressure 30.05 in
Visibility 2.0 miles
Clouds Few 4200 ft
Scattered Clouds 5000 ft
Overcast 9000 ft
Heat Index 87 °F
Dew Point 70 °F
Humidity 65%
Rainfall 0.00 in
Snow Depth Not available.
UV 0.0 out of 12
Pollen 9.40 out of 12
Air Quality Not available.
Flu Activity Not available.
METAR KPTW 302254Z AUTO 00000KT 2SM +RA FEW042 SCT050 OVC090 25/21 A3005 RMK AO2 RAB41 SLP174 P0007 T02500206
Pressure 30.05 in
Visibility 2.0 miles
Clouds Few 4200 ft
Scattered Clouds 5000 ft
Overcast 9000 ft
Heat Index 87 °F
Dew Point 70 °F
Humidity 65%
Rainfall 0.00 in
Snow Depth Not available.
UV 0.0 out of 12
Pollen 9.40 out of 12
Air Quality Not available.
Flu Activity Not available.
METAR KPTW 302254Z AUTO 00000KT 2SM +RA FEW042 SCT050 OVC090 25/21 A3005 RMK AO2 RAB41 SLP174 P0007 T02500206
Nowcast | as of 6:45 PM EDT on August 30, 2015

Isolated rain showers will continue to affect parts of eastern Pennsylvania and northern and central New Jersey early this evening.

×

10-Day Weather Forecast

×

Almanac

Astronomy

Aug. 30, 2015 Rise Set
Actual Time
Civil Twilight
Nautical Twilight
Astronomical Twilight
Moon
Length of Visible Light
Length of Day
Tomorrow will be .
, % of the Moon is Illuminated

Today's Extremes

State Highs State Lows

Community

WunderPhotos

Upload Photos

1,851,075 photos uploaded!

WunderBlogs® & News

Nearby

Air Quality

  Air Quality AQ Index Pollutant
Not available.

Snow Depth

Station Depth Elevation

Earthquake Activity

City Distance Mag. Time & Date
Minimum magnitude displayed is 2.5.

Coastal Water Temperatures

Place Temperature

Stations

Nearby Weather Stations

Station Location Temp. Windchill Dew Point Humidity Wind Precip. Elev Updated Type